createdAt,value
2019-05-10T00:01:51.898Z,98880.69
2019-05-10T00:06:13.893Z,98891.73
2019-05-10T00:10:17.151Z,98877.18
2019-05-10T00:14:37.371Z,98878.08
2019-05-10T00:18:41.584Z,98881.11
2019-05-10T00:22:45.869Z,98883.79
2019-05-10T00:26:50.193Z,98879.43
2019-05-10T00:30:54.422Z,98887.33
2019-05-10T00:34:58.710Z,98890.87
2019-05-10T00:39:02.980Z,98892.19
2019-05-10T00:43:07.209Z,98897.52
2019-05-10T00:47:11.485Z,98898.01
2019-05-10T00:51:15.830Z,98899.43
2019-05-10T00:55:20.501Z,98899.92
2019-05-10T00:59:25.118Z,98899.98
2019-05-10T01:03:29.446Z,98898.33
2019-05-10T01:07:33.953Z,98909.84
2019-05-10T01:11:38.848Z,98912.52
2019-05-10T01:15:46.584Z,98916.48
2019-05-10T01:19:49.431Z,98909.03
2019-05-10T01:23:53.700Z,98906.42
2019-05-10T01:27:57.983Z,98905.56
2019-05-10T01:32:02.446Z,98910.42
2019-05-10T01:36:06.744Z,98915.31
2019-05-10T01:40:11.216Z,98914.45
2019-05-10T01:44:15.478Z,98918.91
2019-05-10T01:48:19.766Z,98922.47
2019-05-10T01:52:24.078Z,98925.55
2019-05-10T01:56:28.334Z,98924.69
2019-05-10T02:00:32.556Z,98931.76
2019-05-10T02:04:36.817Z,98930.41
2019-05-10T02:08:41.057Z,98931.27
2019-05-10T02:12:45.302Z,98931.63
2019-05-10T02:16:49.556Z,98935.14
2019-05-10T02:20:53.771Z,98947.44
2019-05-10T02:24:58.019Z,98940.83
2019-05-10T02:29:02.224Z,98939.47
2019-05-10T02:33:06.634Z,98936.43
2019-05-10T02:37:10.860Z,98941.63
2019-05-10T02:41:15.121Z,98943.84
2019-05-10T02:45:20.391Z,98951.31
2019-05-10T02:49:24.946Z,98948.64
2019-05-10T02:53:29.448Z,98962.35
2019-05-10T02:57:34.305Z,98963.64
2019-05-10T03:01:41.808Z,98975.08
2019-05-10T03:05:48.580Z,98976.80
2019-05-10T03:09:53.836Z,98985.66
2019-05-10T03:14:01.089Z,98991.34
2019-05-10T03:18:05.856Z,98994.42
2019-05-10T03:22:10.135Z,98999.65
2019-05-10T03:26:14.348Z,99007.09
2019-05-10T03:30:18.869Z,99008.88
2019-05-10T03:34:23.141Z,99009.73
2019-05-10T03:38:27.366Z,99015.45
2019-05-10T03:42:31.572Z,99011.86
2019-05-10T03:46:35.830Z,99019.33
2019-05-10T03:50:40.129Z,99022.90
2019-05-10T03:54:44.394Z,99034.37
2019-05-10T03:58:48.689Z,99037.02
2019-05-10T04:02:53.263Z,99043.63
2019-05-10T04:06:57.542Z,99045.38
2019-05-10T04:11:02.151Z,99049.75
2019-05-10T04:15:08.316Z,99058.08
2019-05-10T04:19:12.620Z,99066.42
2019-05-10T04:23:17.036Z,99074.33
2019-05-10T04:27:31.474Z,99077.80
2019-05-10T04:31:27.257Z,99070.73
2019-05-10T04:35:31.499Z,99069.75
2019-05-10T04:39:35.767Z,99072.28
2019-05-10T04:43:40.045Z,99070.80
2019-05-10T04:47:44.351Z,99079.52
2019-05-10T04:51:48.651Z,99067.64
2019-05-10T04:55:52.881Z,99075.98
2019-05-10T04:59:57.145Z,99075.88
2019-05-10T05:04:01.503Z,99080.63
2019-05-10T05:08:06.397Z,99085.30
2019-05-10T05:12:10.780Z,99090.34
2019-05-10T05:16:15.053Z,99096.67
2019-05-10T05:20:19.348Z,99108.23
2019-05-10T05:24:24.561Z,99107.83
2019-05-10T05:28:29.253Z,99102.62
2019-05-10T05:32:38.451Z,99094.02
2019-05-10T05:36:39.811Z,99099.56
2019-05-10T05:40:44.097Z,99099.02
2019-05-10T05:44:48.424Z,99110.72
2019-05-10T05:48:52.732Z,99109.13
2019-05-10T05:52:57.394Z,99111.42
2019-05-10T05:57:01.680Z,99114.53
2019-05-10T06:01:06.071Z,99117.19
2019-05-10T06:05:10.354Z,99119.16
2019-05-10T06:09:14.584Z,99118.70
2019-05-10T06:13:23.478Z,99126.87
2019-05-10T06:17:29.438Z,99133.09
2019-05-10T06:21:31.380Z,99143.16
2019-05-10T06:25:42.237Z,99140.36
2019-05-10T06:29:43.162Z,99142.59
2019-05-10T06:33:47.873Z,99146.06
2019-05-10T06:37:52.144Z,99140.83
2019-05-10T06:41:58.416Z,99144.88
2019-05-10T06:46:03.145Z,99149.64
2019-05-10T06:50:08.227Z,99152.50
2019-05-10T06:54:12.439Z,99153.83
2019-05-10T06:58:16.711Z,99154.80
2019-05-10T07:02:26.664Z,99163.95
2019-05-10T07:06:27.141Z,99155.20
2019-05-10T07:10:33.817Z,99155.13
2019-05-10T07:14:44.970Z,99145.45
2019-05-10T07:18:43.448Z,99152.33
2019-05-10T07:22:47.703Z,99151.94
2019-05-10T07:26:56.624Z,99152.17
2019-05-10T07:30:57.971Z,99163.41
2019-05-10T07:35:02.497Z,99159.55
2019-05-10T07:39:08.433Z,99159.68
2019-05-10T07:43:24.990Z,99159.97
2019-05-10T07:47:23.834Z,99168.05
2019-05-10T07:51:28.729Z,99168.69
2019-05-10T07:55:30.829Z,99169.35
2019-05-10T07:59:49.480Z,99168.81
2019-05-10T08:03:48.294Z,99174.53
2019-05-10T08:07:49.359Z,99180.00
2019-05-10T08:11:53.959Z,99193.52
2019-05-10T08:15:59.499Z,99192.49
2019-05-10T08:20:08.744Z,99189.40
2019-05-10T08:24:16.170Z,99192.36
2019-05-10T08:28:16.635Z,99203.29
2019-05-10T08:32:25.547Z,99196.24
2019-05-10T08:36:26.806Z,99189.75
2019-05-10T08:40:36.803Z,99198.02
2019-05-10T08:44:37.310Z,99204.09
2019-05-10T08:48:46.680Z,99218.34
2019-05-10T08:52:47.557Z,99214.81
2019-05-10T09:01:25.903Z,99212.27
2019-05-10T09:05:28.600Z,99226.89
2019-05-10T09:09:26.344Z,99229.34
2019-05-10T09:13:37.250Z,99232.18
2019-05-10T09:17:36.980Z,99242.24
2019-05-10T09:21:49.324Z,99227.75
2019-05-10T09:25:48.047Z,99234.62
2019-05-10T09:29:52.998Z,99241.17
2019-05-10T09:33:57.563Z,99228.86
2019-05-10T09:38:02.109Z,99236.06
2019-05-10T09:42:10.155Z,99232.66
2019-05-10T09:46:14.146Z,99244.21
2019-05-10T09:50:18.975Z,99231.06
2019-05-10T09:54:28.593Z,99231.59
2019-05-10T09:58:29.205Z,99237.59
2019-05-10T10:02:34.045Z,99236.87
2019-05-10T10:06:41.901Z,99240.70
2019-05-10T10:10:44.359Z,99238.92
2019-05-10T10:14:48.595Z,99235.16
2019-05-10T10:18:52.928Z,99230.25
2019-05-10T10:22:57.152Z,99226.01
2019-05-10T10:27:01.402Z,99228.68
2019-05-10T10:31:08.276Z,99221.97
2019-05-10T10:35:13.144Z,99232.91
2019-05-10T10:39:22.870Z,99225.44
2019-05-10T10:43:23.999Z,99232.78
2019-05-10T10:47:32.048Z,99228.80
2019-05-10T10:51:34.743Z,99216.99
2019-05-10T10:55:40.240Z,99225.22
2019-05-10T10:59:47.314Z,99226.39
2019-05-10T11:03:50.744Z,99225.98
2019-05-10T11:07:55.070Z,99229.86
2019-05-10T11:12:00.963Z,99219.98
2019-05-10T11:16:10.771Z,99238.38
2019-05-10T11:20:12.089Z,99233.44
2019-05-10T11:24:18.566Z,99233.38
2019-05-10T11:28:22.348Z,99230.77
2019-05-10T11:32:26.621Z,99227.30
2019-05-10T11:36:31.400Z,99224.66
2019-05-10T11:40:35.871Z,99217.63
2019-05-10T11:44:41.474Z,99217.00
2019-05-10T11:48:46.123Z,99215.22
2019-05-10T11:52:51.306Z,99207.62
2019-05-10T12:01:12.844Z,99215.91
2019-05-10T12:05:12.182Z,99225.14
2019-05-10T12:09:14.869Z,99205.56
2019-05-10T12:13:23.754Z,99215.27
2019-05-10T12:17:25.142Z,99212.73
2019-05-10T12:21:33.113Z,99211.40
2019-05-10T12:25:51.487Z,99210.74
2019-05-10T12:26:18.268Z,99213.70
2019-05-10T12:29:41.426Z,99213.77
2019-05-10T12:33:45.679Z,99220.55
2019-05-10T12:37:54.129Z,99226.91
2019-05-10T12:41:56.106Z,99229.05
2019-05-10T12:46:00.398Z,99236.64
2019-05-10T12:50:05.382Z,99239.40
2019-05-10T12:54:11.294Z,99258.69
2019-05-10T12:58:15.726Z,99258.11
2019-05-10T13:02:19.999Z,99259.05
2019-05-10T13:06:24.306Z,99262.67
2019-05-10T13:10:28.606Z,99264.36
2019-05-10T13:14:32.864Z,99261.99
2019-05-10T13:18:52.822Z,99266.31
2019-05-10T13:22:43.154Z,99260.31
2019-05-10T13:26:47.431Z,99257.33
2019-05-10T13:30:51.636Z,99268.68
2019-05-10T13:34:55.908Z,99267.98
2019-05-10T13:39:00.215Z,99269.52
2019-05-10T13:43:04.470Z,99271.41
2019-05-10T13:47:08.742Z,99268.39
2019-05-10T13:51:13.017Z,99270.31
2019-05-10T13:55:17.220Z,99270.63
2019-05-10T13:59:21.482Z,99272.45
2019-05-10T14:03:25.748Z,99273.17
2019-05-10T14:07:29.982Z,99282.05
2019-05-10T14:11:40.208Z,99290.08
2019-05-10T14:15:40.203Z,99297.21
2019-05-10T14:19:44.501Z,99292.54
2019-05-10T14:23:48.779Z,99293.11
2019-05-10T14:27:53.056Z,99291.34
2019-05-10T14:31:57.347Z,99291.53
2019-05-10T14:36:03.230Z,99296.31
2019-05-10T14:40:08.281Z,99304.65
2019-05-10T14:44:12.570Z,99305.42
2019-05-10T14:48:27.729Z,99303.27
2019-05-10T14:52:23.219Z,99302.81
2019-05-10T14:56:27.450Z,99307.44
2019-05-10T15:00:31.743Z,99297.67
2019-05-10T15:04:45.268Z,99301.81
2019-05-10T15:08:41.976Z,99303.28
2019-05-10T15:12:46.630Z,99311.30
2019-05-10T15:16:50.847Z,99310.79
2019-05-10T15:20:55.272Z,99307.09
2019-05-10T15:24:59.535Z,99317.06
2019-05-10T15:29:03.944Z,99313.82
2019-05-10T15:33:08.532Z,99329.61
2019-05-10T15:37:12.896Z,99331.68
2019-05-10T15:41:22.393Z,99344.05
2019-05-10T15:45:23.355Z,99341.57
2019-05-10T15:49:27.595Z,99345.39
2019-05-10T15:53:31.891Z,99349.64
2019-05-10T15:57:36.179Z,99347.09
2019-05-10T16:01:40.431Z,99341.61
2019-05-10T16:05:59.580Z,99355.51
2019-05-10T16:09:54.494Z,99351.23
2019-05-10T16:14:00.171Z,99355.43
2019-05-10T16:18:03.058Z,99358.81
2019-05-10T16:22:07.370Z,99361.97
2019-05-10T16:26:11.644Z,99359.35
2019-05-10T16:30:17.743Z,99361.34
2019-05-10T16:34:26.460Z,99367.22
2019-05-10T16:38:27.904Z,99357.72
2019-05-10T16:42:34.535Z,99356.83
2019-05-10T16:46:38.214Z,99361.37
2019-05-10T16:50:42.837Z,99370.39
2019-05-10T16:54:47.069Z,99376.41
2019-05-10T16:58:53.143Z,99392.31
2019-05-10T17:02:57.903Z,99393.02
2019-05-10T17:07:02.156Z,99397.72
2019-05-10T17:11:10.063Z,99404.34
2019-05-10T17:15:13.054Z,99406.84
2019-05-10T17:19:17.368Z,99414.03
2019-05-10T17:23:21.610Z,99414.61
2019-05-10T17:27:26.023Z,99418.08
2019-05-10T17:31:30.240Z,99420.45
2019-05-10T17:35:36.642Z,99426.48
2019-05-10T17:39:40.669Z,99432.81
2019-05-10T17:43:44.942Z,99430.45
2019-05-10T17:47:49.614Z,99445.13
2019-05-10T17:51:53.882Z,99446.86
2019-05-10T17:56:02.653Z,99449.33
2019-05-10T18:00:05.118Z,99449.08
2019-05-10T18:04:09.377Z,99454.31
2019-05-10T18:08:13.703Z,99458.36
2019-05-10T18:12:20.388Z,99452.73
2019-05-10T18:16:24.338Z,99457.34
2019-05-10T18:20:28.937Z,99455.89
2019-05-10T18:24:36.259Z,99464.10
2019-05-10T18:28:39.806Z,99470.84
2019-05-10T18:32:44.338Z,99470.17
2019-05-10T18:36:52.309Z,99485.97
2019-05-10T18:40:58.141Z,99485.28
2019-05-10T18:45:02.827Z,99489.97
2019-05-10T18:49:07.275Z,99486.86
2019-05-10T18:53:11.611Z,99488.00
2019-05-10T18:57:19.243Z,99497.98
2019-05-10T19:01:22.346Z,99502.61
2019-05-10T19:05:31.671Z,99513.13
2019-05-10T19:09:33.290Z,99513.78
2019-05-10T19:13:46.637Z,99513.94
2019-05-10T19:17:45.766Z,99521.20
2019-05-10T19:21:50.720Z,99533.34
2019-05-10T19:25:56.108Z,99537.08
2019-05-10T19:30:00.664Z,99536.69
2019-05-10T19:34:09.041Z,99540.35
2019-05-10T19:38:12.117Z,99541.83
2019-05-10T19:42:16.641Z,99544.19
2019-05-10T19:46:20.996Z,99549.28
2019-05-10T19:50:30.671Z,99550.05
2019-05-10T19:54:31.732Z,99555.12
2019-05-10T19:58:36.090Z,99559.64
2019-05-10T20:02:40.384Z,99567.27
2019-05-10T20:06:46.047Z,99572.25
2019-05-10T20:10:50.470Z,99580.73
2019-05-10T20:14:55.041Z,99578.30
2019-05-10T20:18:59.660Z,99585.55
2019-05-10T20:23:04.101Z,99596.28
2019-05-10T20:27:08.524Z,99594.24
2019-05-10T20:31:12.843Z,99590.87
2019-05-10T20:35:17.386Z,99594.91
2019-05-10T20:39:21.685Z,99597.19
2019-05-10T20:43:25.983Z,99594.59
2019-05-10T20:47:30.236Z,99595.48
2019-05-10T20:51:34.499Z,99610.09
2019-05-10T20:55:38.821Z,99610.61
2019-05-10T20:59:43.570Z,99610.64
2019-05-10T21:03:47.834Z,99613.29
2019-05-10T21:07:52.118Z,99613.75
2019-05-10T21:11:56.359Z,99615.55
2019-05-10T21:16:00.645Z,99612.45
2019-05-10T21:20:05.337Z,99612.56
2019-05-10T21:24:09.594Z,99619.70
2019-05-10T21:28:13.922Z,99628.12
2019-05-10T21:32:18.220Z,99623.78
2019-05-10T21:36:24.737Z,99625.16
2019-05-10T21:40:28.442Z,99622.11
2019-05-10T21:44:32.786Z,99615.91
2019-05-10T21:48:37.057Z,99617.74
2019-05-10T21:52:41.675Z,99623.09
2019-05-10T21:56:45.954Z,99626.26
2019-05-10T22:00:52.168Z,99632.97
2019-05-10T22:04:56.427Z,99637.02
2019-05-10T22:09:00.739Z,99634.44
2019-05-10T22:13:04.971Z,99627.50
2019-05-10T22:17:09.222Z,99636.84
2019-05-10T22:21:13.494Z,99634.31
2019-05-10T22:25:17.971Z,99638.80
2019-05-10T22:29:22.509Z,99635.80
2019-05-10T22:33:26.929Z,99627.94
2019-05-10T22:37:31.482Z,99622.73
2019-05-10T22:41:35.799Z,99621.88
2019-05-10T22:45:40.034Z,99616.22
2019-05-10T22:49:44.280Z,99621.56
2019-05-10T22:53:59.122Z,99622.91
2019-05-10T22:57:54.587Z,99619.02
2019-05-10T23:01:58.827Z,99613.34
2019-05-10T23:06:03.085Z,99620.95
2019-05-10T23:10:07.622Z,99623.63
2019-05-10T23:14:11.894Z,99618.82
2019-05-10T23:18:16.138Z,99620.23
2019-05-10T23:22:20.466Z,99618.52
2019-05-10T23:26:24.897Z,99620.34
2019-05-10T23:30:29.173Z,99613.37
2019-05-10T23:34:33.401Z,99611.22
2019-05-10T23:38:37.738Z,99605.53
2019-05-10T23:42:42.004Z,99602.45
2019-05-10T23:46:46.272Z,99596.72
2019-05-10T23:50:50.525Z,99595.88
2019-05-10T23:54:54.809Z,99591.52
2019-05-10T23:58:59.062Z,99592.00
